Time;durP1;ratioP1;P1;durP2;ratioP2;P2;SDS_P1;SDS_P2;PMS_P1;PMS_P2;Temp;Humidity;BMP_temperature;BMP_pressure;BME280_temperature;BME280_humidity;BME280_pressure;Samples;Min_cycle;Max_cycle;Signal;HPM_P1;HPM_P2
2022/04/28 00:01:54;;;;;;;;;;;13.60;57.40;;;;;;5016734;28;20003;-59
2022/04/28 00:04:19;;;;;;;;;;;13.50;57.50;;;;;;5016770;28;19909;-57
2022/04/28 00:06:45;;;;;;;;;;;13.50;57.30;;;;;;5016780;28;19910;-61
2022/04/28 00:09:10;;;;;;;;;;;13.50;57.20;;;;;;5016635;28;20341;-57
2022/04/28 00:11:36;;;;;;;;;;;13.40;57.30;;;;;;5016577;28;19913;-57
2022/04/28 00:14:01;;;;;;;;;;;13.40;56.80;;;;;;5016236;28;19909;-56
2022/04/28 00:16:27;;;;;;;;;;;13.40;56.70;;;;;;5015877;28;20325;-61
2022/04/28 00:18:53;;;;;;;;;;;13.50;56.60;;;;;;5016490;28;20020;-57
2022/04/28 00:21:20;;;;;;;;;;;13.40;56.80;;;;;;5016263;28;19937;-58
2022/04/28 00:23:46;;;;;;;;;;;13.50;56.80;;;;;;5015988;28;19921;-58
2022/04/28 00:26:12;;;;;;;;;;;13.50;56.40;;;;;;5016173;28;19913;-59
2022/04/28 00:28:37;;;;;;;;;;;13.50;56.40;;;;;;5016216;28;19909;-58
2022/04/28 00:31:03;;;;;;;;;;;13.50;56.40;;;;;;5016161;28;20273;-57
2022/04/28 00:33:28;;;;;;;;;;;13.50;55.90;;;;;;5016329;28;19925;-59
2022/04/28 00:35:54;;;;;;;;;;;13.50;56.10;;;;;;5016104;28;19936;-58
2022/04/28 00:38:20;;;;;;;;;;;13.40;56.20;;;;;;5016007;28;19925;-57
2022/04/28 00:40:46;;;;;;;;;;;13.40;56.10;;;;;;5015840;28;19909;-57
2022/04/28 00:43:20;;;;;;;;;;;13.40;56.00;;;;;;5016025;28;19931;-56
2022/04/28 00:45:49;;;;;;;;;;;13.50;56.00;;;;;;5016296;28;19997;-56
2022/04/28 00:51:01;;;;;;;;;;;13.50;56.20;;;;;;5016070;28;19916;-60
2022/04/28 00:53:30;;;;;;;;;;;13.50;56.20;;;;;;5015464;28;19913;-57
2022/04/28 00:56:00;;;;;;;;;;;13.60;56.00;;;;;;5015533;28;20380;-60
2022/04/28 00:58:26;;;;;;;;;;;13.70;55.80;;;;;;5015547;28;20270;-58
2022/04/28 01:00:53;;;;;;;;;;;13.50;55.80;;;;;;5015782;28;19909;-65
2022/04/28 01:03:21;;;;;;;;;;;13.50;55.60;;;;;;5015281;28;20031;-58
2022/04/28 01:05:47;;;;;;;;;;;13.50;55.70;;;;;;5015343;28;19909;-60
2022/04/28 01:08:13;;;;;;;;;;;13.60;55.80;;;;;;5015290;28;19916;-57
2022/04/28 01:10:38;;;;;;;;;;;13.60;55.90;;;;;;5015326;28;20376;-57
2022/04/28 01:13:04;;;;;;;;;;;13.40;56.60;;;;;;5015294;28;19913;-58
2022/04/28 01:15:40;;;;;;;;;;;13.50;56.40;;;;;;5015263;28;20001;-57
2022/04/28 01:18:06;;;;;;;;;;;13.40;56.00;;;;;;5014989;28;19936;-57
2022/04/28 01:20:32;;;;;;;;;;;13.50;56.10;;;;;;5015375;28;19913;-57
2022/04/28 01:22:57;;;;;;;;;;;13.60;56.20;;;;;;5014817;28;19929;-58
2022/04/28 01:25:23;;;;;;;;;;;13.40;56.20;;;;;;5015220;28;20039;-57
2022/04/28 01:27:48;;;;;;;;;;;13.50;56.20;;;;;;5014502;28;19916;-57
2022/04/28 01:30:14;;;;;;;;;;;13.50;56.60;;;;;;5014781;28;20350;-56
2022/04/28 01:32:40;;;;;;;;;;;13.40;57.10;;;;;;5014766;28;20070;-58
2022/04/28 01:35:06;;;;;;;;;;;13.30;57.80;;;;;;5014757;28;19909;-56
2022/04/28 01:37:31;;;;;;;;;;;13.30;57.30;;;;;;5014625;28;19964;-57
2022/04/28 01:39:57;;;;;;;;;;;13.30;57.40;;;;;;5014938;28;19940;-58
2022/04/28 01:42:23;;;;;;;;;;;13.30;57.40;;;;;;5014888;28;19910;-57
2022/04/28 01:44:49;;;;;;;;;;;13.30;57.30;;;;;;5014739;28;19945;-58
2022/04/28 01:47:15;;;;;;;;;;;13.10;58.00;;;;;;5014968;28;19953;-57
2022/04/28 01:49:41;;;;;;;;;;;13.00;58.50;;;;;;5014651;28;19914;-58
2022/04/28 01:54:57;;;;;;;;;;;13.00;59.40;;;;;;5014738;28;20019;-59
2022/04/28 01:57:27;;;;;;;;;;;12.90;60.20;;;;;;5014595;28;20433;-57
2022/04/28 01:59:53;;;;;;;;;;;12.90;59.90;;;;;;5014586;28;19918;-58
2022/04/28 02:02:18;;;;;;;;;;;12.70;59.30;;;;;;5014159;28;20321;-57
2022/04/28 02:04:44;;;;;;;;;;;12.80;58.30;;;;;;5014744;28;19918;-57
2022/04/28 02:07:11;;;;;;;;;;;13.00;56.90;;;;;;5014688;28;19909;-57
2022/04/28 02:09:37;;;;;;;;;;;13.10;57.40;;;;;;5014507;28;20270;-58
2022/04/28 02:12:03;;;;;;;;;;;13.10;58.00;;;;;;5014261;28;19920;-60
2022/04/28 02:14:29;;;;;;;;;;;12.90;59.30;;;;;;5014296;28;19910;-58
2022/04/28 02:16:54;;;;;;;;;;;12.90;58.40;;;;;;5014141;28;19940;-61
2022/04/28 02:19:21;;;;;;;;;;;12.80;58.20;;;;;;5014027;28;20116;-56
2022/04/28 02:21:46;;;;;;;;;;;12.80;58.50;;;;;;5013902;28;19910;-61
2022/04/28 02:24:12;;;;;;;;;;;12.90;58.90;;;;;;5013888;28;19927;-62
2022/04/28 02:26:38;;;;;;;;;;;12.80;59.10;;;;;;5014107;28;19910;-57
2022/04/28 02:29:03;;;;;;;;;;;12.90;58.00;;;;;;5014070;28;19917;-57
2022/04/28 02:31:29;;;;;;;;;;;13.00;57.60;;;;;;5013846;28;19909;-58
2022/04/28 02:33:54;;;;;;;;;;;13.00;57.70;;;;;;5013972;28;19917;-66
2022/04/28 02:36:20;;;;;;;;;;;13.00;57.70;;;;;;5013912;28;19956;-57
2022/04/28 02:38:45;;;;;;;;;;;13.00;57.80;;;;;;5013561;28;19963;-59
2022/04/28 02:41:11;;;;;;;;;;;12.90;58.30;;;;;;5013698;28;20005;-57
2022/04/28 02:43:37;;;;;;;;;;;12.90;58.20;;;;;;5013697;28;19917;-56
2022/04/28 02:46:02;;;;;;;;;;;12.90;58.40;;;;;;5014053;28;19909;-61
2022/04/28 02:48:28;;;;;;;;;;;12.90;58.60;;;;;;5013574;28;20007;-56
2022/04/28 02:50:53;;;;;;;;;;;12.90;59.40;;;;;;5014270;28;19916;-59
2022/04/28 02:53:19;;;;;;;;;;;12.70;59.80;;;;;;5013609;28;19910;-60
2022/04/28 02:55:44;;;;;;;;;;;12.40;61.20;;;;;;5013695;28;19936;-56
2022/04/28 02:58:10;;;;;;;;;;;12.40;61.60;;;;;;5012480;28;19984;-57
2022/04/28 03:00:36;;;;;;;;;;;12.30;61.50;;;;;;5012798;28;20005;-59
2022/04/28 03:03:02;;;;;;;;;;;12.30;63.00;;;;;;5013431;28;19918;-57
2022/04/28 03:05:28;;;;;;;;;;;12.30;63.00;;;;;;5013597;28;20002;-57
2022/04/28 03:10:49;;;;;;;;;;;12.40;62.20;;;;;;5013670;28;19936;-66
2022/04/28 03:13:18;;;;;;;;;;;12.20;62.60;;;;;;5013462;28;19964;-57
2022/04/28 03:15:45;;;;;;;;;;;12.30;61.60;;;;;;5013406;28;20438;-60
2022/04/28 03:18:11;;;;;;;;;;;12.40;61.40;;;;;;5013274;28;20408;-56
2022/04/28 03:20:37;;;;;;;;;;;12.40;61.00;;;;;;5013618;28;19920;-63
2022/04/28 03:23:03;;;;;;;;;;;12.40;61.00;;;;;;5013381;28;19929;-58
2022/04/28 03:25:28;;;;;;;;;;;12.30;61.20;;;;;;5013490;28;19910;-56
2022/04/28 03:27:56;;;;;;;;;;;12.40;60.50;;;;;;5012007;28;19909;-56
2022/04/28 03:30:22;;;;;;;;;;;12.10;61.50;;;;;;5013299;28;20425;-57
2022/04/28 03:32:47;;;;;;;;;;;12.20;60.30;;;;;;5013335;28;20000;-57
2022/04/28 03:35:14;;;;;;;;;;;12.40;60.10;;;;;;5013502;28;19913;-57
2022/04/28 03:37:39;;;;;;;;;;;12.40;60.60;;;;;;5013391;28;20419;-57
2022/04/28 03:40:05;;;;;;;;;;;12.40;60.90;;;;;;5013423;28;19913;-58
2022/04/28 03:42:31;;;;;;;;;;;12.40;59.50;;;;;;5013088;28;19910;-60
2022/04/28 03:44:56;;;;;;;;;;;12.60;58.10;;;;;;5013954;28;19909;-57
2022/04/28 03:47:22;;;;;;;;;;;12.80;57.70;;;;;;5013473;28;19979;-64
2022/04/28 03:49:47;;;;;;;;;;;12.80;57.00;;;;;;5013213;28;19917;-62
2022/04/28 03:52:13;;;;;;;;;;;12.70;57.50;;;;;;5014850;28;19913;-64
2022/04/28 03:54:39;;;;;;;;;;;12.80;57.50;;;;;;5017044;28;19932;-57
2022/04/28 03:57:04;;;;;;;;;;;12.90;57.00;;;;;;5016778;28;19996;-57
2022/04/28 03:59:30;;;;;;;;;;;12.90;57.20;;;;;;5016642;28;20343;-57
2022/04/28 04:01:56;;;;;;;;;;;13.00;57.30;;;;;;5016660;28;19910;-56
2022/04/28 04:04:21;;;;;;;;;;;12.90;57.10;;;;;;5016615;28;19956;-58
2022/04/28 04:06:47;;;;;;;;;;;12.90;57.50;;;;;;5016598;28;19909;-56
2022/04/28 04:09:12;;;;;;;;;;;12.90;57.50;;;;;;5016354;28;19910;-57
2022/04/28 04:11:38;;;;;;;;;;;12.80;57.70;;;;;;5016503;28;19936;-56
2022/04/28 04:14:03;;;;;;;;;;;12.90;57.90;;;;;;5016778;28;19910;-57
2022/04/28 04:16:29;;;;;;;;;;;12.90;57.80;;;;;;5016431;28;19910;-57
2022/04/28 04:18:54;;;;;;;;;;;13.00;57.60;;;;;;5016385;28;19976;-57
2022/04/28 04:21:20;;;;;;;;;;;12.90;58.50;;;;;;5016548;28;19963;-61
2022/04/28 04:23:46;;;;;;;;;;;12.80;59.40;;;;;;5016088;28;19926;-59
2022/04/28 04:26:12;;;;;;;;;;;12.60;59.70;;;;;;5016307;28;20377;-60
2022/04/28 04:28:37;;;;;;;;;;;12.40;61.20;;;;;;5016525;28;19913;-56
2022/04/28 04:33:47;;;;;;;;;;;12.40;60.10;;;;;;5016482;28;19936;-62
2022/04/28 04:36:12;;;;;;;;;;;12.30;60.70;;;;;;5015955;28;19910;-57
2022/04/28 04:38:38;;;;;;;;;;;12.20;61.20;;;;;;5015828;28;20016;-57
2022/04/28 04:41:05;;;;;;;;;;;12.30;61.70;;;;;;5015852;28;19949;-56
2022/04/28 04:43:31;;;;;;;;;;;12.00;62.70;;;;;;5015970;28;20016;-56
2022/04/28 04:45:56;;;;;;;;;;;12.00;63.60;;;;;;5016046;28;19957;-56
2022/04/28 04:48:23;;;;;;;;;;;12.10;63.80;;;;;;5016126;28;19909;-57
2022/04/28 04:50:49;;;;;;;;;;;12.00;63.30;;;;;;5015838;28;19913;-57
2022/04/28 04:53:14;;;;;;;;;;;12.00;64.20;;;;;;5015373;28;19910;-57
2022/04/28 04:55:40;;;;;;;;;;;11.70;65.60;;;;;;5015583;28;19913;-56
2022/04/28 04:58:05;;;;;;;;;;;11.70;66.20;;;;;;5015670;28;19957;-59
2022/04/28 05:00:31;;;;;;;;;;;11.90;64.40;;;;;;5014350;28;20269;-57
2022/04/28 05:02:57;;;;;;;;;;;12.10;62.20;;;;;;5015320;28;19971;-56
2022/04/28 05:05:22;;;;;;;;;;;12.30;60.90;;;;;;5015928;28;19914;-56
2022/04/28 05:07:48;;;;;;;;;;;12.40;59.40;;;;;;5016467;28;20000;-56
2022/04/28 05:10:14;;;;;;;;;;;12.50;60.70;;;;;;5016825;28;20281;-57
2022/04/28 05:12:39;;;;;;;;;;;12.40;61.50;;;;;;5014383;28;19971;-55
2022/04/28 05:15:05;;;;;;;;;;;12.60;64.70;;;;;;5015548;28;19910;-56
2022/04/28 05:17:30;;;;;;;;;;;12.50;62.70;;;;;;5015308;28;20437;-56
2022/04/28 05:19:57;;;;;;;;;;;12.80;62.30;;;;;;5015237;28;19917;-57
2022/04/28 05:22:23;;;;;;;;;;;12.90;61.30;;;;;;5014723;28;19917;-55
2022/04/28 05:24:49;;;;;;;;;;;13.00;62.30;;;;;;5015028;28;19909;-55
2022/04/28 05:27:15;;;;;;;;;;;13.00;60.70;;;;;;5015163;28;19910;-55
2022/04/28 05:29:40;;;;;;;;;;;13.00;62.30;;;;;;5015060;28;19909;-55
2022/04/28 05:32:06;;;;;;;;;;;13.00;61.70;;;;;;5014857;28;19909;-56
2022/04/28 05:34:31;;;;;;;;;;;12.80;61.10;;;;;;5015326;28;19916;-54
2022/04/28 05:36:57;;;;;;;;;;;12.70;61.20;;;;;;5015199;28;19917;-53
2022/04/28 05:39:23;;;;;;;;;;;12.80;62.20;;;;;;5014633;28;19918;-56
2022/04/28 05:41:49;;;;;;;;;;;12.90;62.20;;;;;;5015439;28;19921;-54
2022/04/28 05:46:58;;;;;;;;;;;12.80;63.80;;;;;;5015025;28;19917;-56
2022/04/28 05:49:24;;;;;;;;;;;12.80;63.90;;;;;;5014872;28;19914;-65
2022/04/28 05:51:49;;;;;;;;;;;12.80;64.00;;;;;;5014742;28;20365;-67
2022/04/28 05:54:15;;;;;;;;;;;12.80;64.80;;;;;;5014424;28;19952;-64
2022/04/28 05:56:42;;;;;;;;;;;13.20;65.40;;;;;;5014362;28;20365;-63
2022/04/28 05:59:09;;;;;;;;;;;13.70;62.40;;;;;;5014307;28;19921;-64
2022/04/28 06:01:34;;;;;;;;;;;14.10;61.00;;;;;;5014264;28;19941;-65
2022/04/28 06:04:00;;;;;;;;;;;14.50;59.10;;;;;;5014329;28;19906;-66
2022/04/28 06:06:25;;;;;;;;;;;15.10;58.30;;;;;;5013982;28;19909;-54
2022/04/28 06:08:51;;;;;;;;;;;14.60;56.50;;;;;;5014488;28;19917;-59
2022/04/28 06:11:17;;;;;;;;;;;14.90;57.00;;;;;;5014354;28;19952;-55
2022/04/28 06:13:43;;;;;;;;;;;15.30;56.60;;;;;;5014137;28;20419;-57
2022/04/28 06:16:09;;;;;;;;;;;15.50;55.20;;;;;;5013882;28;19910;-55
2022/04/28 06:18:35;;;;;;;;;;;15.70;50.70;;;;;;5014107;28;19913;-56
2022/04/28 06:21:00;;;;;;;;;;;16.10;49.90;;;;;;5014067;28;19949;-67
2022/04/28 06:23:26;;;;;;;;;;;16.50;51.50;;;;;;5013929;28;20423;-56
2022/04/28 06:25:51;;;;;;;;;;;16.90;48.50;;;;;;5014270;28;19913;-56
2022/04/28 06:28:17;;;;;;;;;;;17.10;50.60;;;;;;5014241;28;19910;-58
2022/04/28 06:30:43;;;;;;;;;;;17.50;49.20;;;;;;5014542;28;19916;-63
2022/04/28 06:33:08;;;;;;;;;;;17.70;45.00;;;;;;5013712;28;20250;-70
2022/04/28 06:35:34;;;;;;;;;;;17.70;45.20;;;;;;5013664;28;19936;-64
2022/04/28 06:38:00;;;;;;;;;;;18.00;45.20;;;;;;5014207;28;19964;-69
2022/04/28 06:40:26;;;;;;;;;;;17.80;43.30;;;;;;5013722;28;19920;-57
2022/04/28 06:42:52;;;;;;;;;;;17.90;43.00;;;;;;5013757;28;19909;-66
2022/04/28 06:45:17;;;;;;;;;;;18.10;45.60;;;;;;5013560;28;20353;-70
2022/04/28 06:47:43;;;;;;;;;;;18.10;41.50;;;;;;5013998;28;19914;-56
2022/04/28 06:50:09;;;;;;;;;;;18.20;43.90;;;;;;5013777;28;20413;-69
2022/04/28 06:52:35;;;;;;;;;;;18.50;44.30;;;;;;5013383;28;20004;-56
2022/04/28 06:55:02;;;;;;;;;;;18.80;42.00;;;;;;5013572;28;19909;-57
2022/04/28 06:57:27;;;;;;;;;;;18.60;44.10;;;;;;5013798;28;20361;-59
2022/04/28 06:59:53;;;;;;;;;;;18.60;41.20;;;;;;5013694;28;20008;-59
2022/04/28 07:02:20;;;;;;;;;;;18.90;44.20;;;;;;5013657;28;19916;-65
2022/04/28 07:04:46;;;;;;;;;;;18.90;38.90;;;;;;5013501;28;19914;-69
2022/04/28 07:07:11;;;;;;;;;;;19.20;42.30;;;;;;5013521;28;19918;-59
2022/04/28 07:09:37;;;;;;;;;;;19.50;40.90;;;;;;5013956;28;20047;-59
2022/04/28 07:12:02;;;;;;;;;;;19.80;40.30;;;;;;5013788;28;19909;-58
2022/04/28 07:14:28;;;;;;;;;;;19.60;36.30;;;;;;5013667;28;19910;-57
2022/04/28 07:16:54;;;;;;;;;;;19.70;38.40;;;;;;5013591;28;20009;-56
2022/04/28 07:19:19;;;;;;;;;;;19.80;37.00;;;;;;5012960;28;19917;-56
2022/04/28 07:21:45;;;;;;;;;;;19.50;36.70;;;;;;5013680;28;20350;-56
2022/04/28 07:24:10;;;;;;;;;;;19.10;35.10;;;;;;5013701;28;20009;-57
2022/04/28 07:26:36;;;;;;;;;;;19.10;36.30;;;;;;5014621;28;19910;-56
2022/04/28 07:29:02;;;;;;;;;;;19.20;36.00;;;;;;5017066;28;19910;-67
2022/04/28 07:31:28;;;;;;;;;;;19.30;36.60;;;;;;5017007;28;19956;-57
2022/04/28 07:33:54;;;;;;;;;;;19.40;36.80;;;;;;5017264;28;19920;-56
2022/04/28 07:36:19;;;;;;;;;;;19.50;35.70;;;;;;5017029;28;19913;-54
2022/04/28 07:38:45;;;;;;;;;;;19.50;36.30;;;;;;5017445;28;19917;-55
2022/04/28 07:41:12;;;;;;;;;;;19.40;34.30;;;;;;5017240;28;19909;-57
2022/04/28 07:43:37;;;;;;;;;;;19.30;34.70;;;;;;5015746;28;19996;-57
2022/04/28 07:46:03;;;;;;;;;;;19.40;35.40;;;;;;5017153;28;19979;-60
2022/04/28 07:48:29;;;;;;;;;;;19.50;34.80;;;;;;5016861;28;19916;-56
2022/04/28 07:50:54;;;;;;;;;;;19.50;34.60;;;;;;5017366;28;19917;-55
2022/04/28 07:53:21;;;;;;;;;;;19.50;34.30;;;;;;5016971;28;20008;-60
2022/04/28 07:56:10;;;;;;;;;;;19.50;32.50;;;;;;5016891;28;19910;-55
2022/04/28 07:58:32;;;;;;;;;;;19.60;36.60;;;;;;5016602;28;19924;-56
2022/04/28 08:00:58;;;;;;;;;;;20.00;36.70;;;;;;5016923;28;19910;-55
2022/04/28 08:03:24;;;;;;;;;;;20.00;34.20;;;;;;5016504;28;19941;-55
2022/04/28 08:05:50;;;;;;;;;;;19.90;32.60;;;;;;5016514;28;19961;-57
2022/04/28 08:08:16;;;;;;;;;;;20.00;34.30;;;;;;5016657;28;19937;-57
2022/04/28 08:10:41;;;;;;;;;;;19.90;31.90;;;;;;5016855;28;19955;-56
2022/04/28 08:13:07;;;;;;;;;;;20.00;31.60;;;;;;5016466;28;20273;-56
2022/04/28 08:15:32;;;;;;;;;;;19.90;30.80;;;;;;5016484;28;19916;-56
2022/04/28 08:17:59;;;;;;;;;;;19.60;30.00;;;;;;5016224;28;19913;-56
2022/04/28 08:20:24;;;;;;;;;;;19.60;31.90;;;;;;5014938;28;20007;-57
2022/04/28 08:22:50;;;;;;;;;;;19.60;31.00;;;;;;5015471;28;20389;-57
2022/04/28 08:25:15;;;;;;;;;;;19.70;32.70;;;;;;5015737;28;19933;-57
2022/04/28 08:27:43;;;;;;;;;;;20.00;31.10;;;;;;5015096;28;20270;-61
2022/04/28 08:30:09;;;;;;;;;;;20.00;30.70;;;;;;5014847;28;20290;-61
2022/04/28 08:32:35;;;;;;;;;;;20.10;31.00;;;;;;5012899;28;19956;-62
2022/04/28 08:35:01;;;;;;;;;;;20.00;30.70;;;;;;5015413;28;20366;-62
2022/04/28 08:37:26;;;;;;;;;;;20.00;30.00;;;;;;5015475;28;20353;-56
2022/04/28 08:39:52;;;;;;;;;;;20.00;29.90;;;;;;5015897;28;20011;-58
2022/04/28 08:42:18;;;;;;;;;;;19.80;29.70;;;;;;5015804;28;20004;-58
2022/04/28 08:44:44;;;;;;;;;;;19.90;32.70;;;;;;5016111;28;20300;-58
2022/04/28 08:47:10;;;;;;;;;;;20.00;30.50;;;;;;5015738;28;19910;-58
2022/04/28 08:49:36;;;;;;;;;;;20.20;31.80;;;;;;5015880;28;20001;-58
2022/04/28 08:52:02;;;;;;;;;;;20.30;30.00;;;;;;5015665;28;20303;-58
2022/04/28 08:54:29;;;;;;;;;;;20.20;29.60;;;;;;5012465;28;19996;-58
2022/04/28 08:56:56;;;;;;;;;;;20.20;30.00;;;;;;5014356;28;19910;-57
2022/04/28 08:59:22;;;;;;;;;;;20.20;29.90;;;;;;5015828;28;19917;-63
2022/04/28 09:01:48;;;;;;;;;;;20.10;29.30;;;;;;5015888;28;19917;-58
2022/04/28 09:04:13;;;;;;;;;;;20.10;29.00;;;;;;5015542;28;20389;-59
2022/04/28 09:06:40;;;;;;;;;;;20.20;31.70;;;;;;5015465;28;20336;-57
2022/04/28 09:09:07;;;;;;;;;;;20.50;30.80;;;;;;5015547;28;19920;-57
2022/04/28 09:11:35;;;;;;;;;;;20.60;30.70;;;;;;5015396;28;20372;-59
2022/04/28 09:14:11;;;;;;;;;;;20.80;30.70;;;;;;5015150;28;19915;-58
2022/04/28 09:16:47;;;;;;;;;;;20.60;28.50;;;;;;5014928;28;19961;-56
2022/04/28 09:19:14;;;;;;;;;;;20.60;29.00;;;;;;5015086;28;19917;-63
2022/04/28 09:21:40;;;;;;;;;;;20.50;28.20;;;;;;5015137;28;19910;-57
2022/04/28 09:24:06;;;;;;;;;;;20.60;30.40;;;;;;5014467;28;20333;-57
2022/04/28 09:26:32;;;;;;;;;;;20.50;28.10;;;;;;5014639;28;20370;-57
2022/04/28 09:29:02;;;;;;;;;;;20.40;27.70;;;;;;5015166;28;19909;-58
2022/04/28 09:31:29;;;;;;;;;;;20.40;29.40;;;;;;5014779;28;19911;-56
2022/04/28 09:33:54;;;;;;;;;;;20.30;28.50;;;;;;5014873;28;19947;-57
2022/04/28 09:36:20;;;;;;;;;;;20.10;28.40;;;;;;5014863;28;19952;-56
2022/04/28 09:38:51;;;;;;;;;;;20.20;30.00;;;;;;5014697;28;19921;-59
2022/04/28 09:44:01;;;;;;;;;;;20.40;28.20;;;;;;5014747;28;19952;-59
2022/04/28 09:46:27;;;;;;;;;;;20.10;27.60;;;;;;5014851;28;19913;-59
2022/04/28 09:48:52;;;;;;;;;;;20.00;27.80;;;;;;5014446;28;20353;-58
2022/04/28 09:51:22;;;;;;;;;;;20.00;28.50;;;;;;5014297;28;19963;-60
2022/04/28 09:53:48;;;;;;;;;;;19.80;28.00;;;;;;5014688;28;20044;-59
2022/04/28 09:56:15;;;;;;;;;;;19.80;28.90;;;;;;5014719;28;19917;-58
2022/04/28 09:58:41;;;;;;;;;;;19.60;27.90;;;;;;5014618;28;19917;-61
2022/04/28 10:01:07;;;;;;;;;;;19.60;28.50;;;;;;5014482;28;19932;-60
2022/04/28 10:03:33;;;;;;;;;;;19.70;28.20;;;;;;5014731;28;19910;-58
2022/04/28 10:06:00;;;;;;;;;;;19.50;28.20;;;;;;5014892;28;19932;-58
2022/04/28 10:08:25;;;;;;;;;;;19.40;28.60;;;;;;5014139;28;19917;-57
2022/04/28 10:10:53;;;;;;;;;;;19.60;29.20;;;;;;5014180;28;19910;-58
2022/04/28 10:13:19;;;;;;;;;;;19.70;29.10;;;;;;5014320;28;19944;-59
2022/04/28 10:15:46;;;;;;;;;;;19.80;28.70;;;;;;5014205;28;20056;-59
2022/04/28 10:18:12;;;;;;;;;;;20.10;28.90;;;;;;5012863;28;19918;-59
2022/04/28 10:20:41;;;;;;;;;;;20.30;29.20;;;;;;5014533;28;20262;-60
2022/04/28 10:23:08;;;;;;;;;;;20.20;28.90;;;;;;5014043;28;19968;-59
2022/04/28 10:34:08;;;;;;;;;;;20.00;29.50;;;;;;5014027;28;19916;-59
2022/04/28 10:36:49;;;;;;;;;;;20.20;29.40;;;;;;5013952;28;19913;-60
2022/04/28 10:39:14;;;;;;;;;;;20.20;30.00;;;;;;5013828;28;19921;-59
2022/04/28 10:41:40;;;;;;;;;;;20.30;29.50;;;;;;5014084;28;19913;-58
2022/04/28 10:44:18;;;;;;;;;;;20.20;29.50;;;;;;5013937;28;20218;-60
2022/04/28 10:47:07;;;;;;;;;;;20.20;29.60;;;;;;5013768;28;19913;-60
2022/04/28 10:49:39;;;;;;;;;;;20.20;30.30;;;;;;5014011;28;19909;-58
2022/04/28 10:52:05;;;;;;;;;;;20.30;29.50;;;;;;5013754;28;19913;-59
2022/04/28 10:54:43;;;;;;;;;;;20.40;29.90;;;;;;5013303;28;19909;-61
2022/04/28 10:57:12;;;;;;;;;;;20.30;29.80;;;;;;5014011;28;20019;-62
2022/04/28 10:59:38;;;;;;;;;;;20.40;29.30;;;;;;5013544;28;19946;-58
2022/04/28 11:02:09;;;;;;;;;;;20.60;29.50;;;;;;5016866;28;19916;-60
2022/04/28 11:04:36;;;;;;;;;;;20.60;30.80;;;;;;5017680;28;19909;-60
2022/04/28 11:07:05;;;;;;;;;;;20.70;29.70;;;;;;5017522;28;19909;-62
2022/04/28 11:09:55;;;;;;;;;;;21.00;30.00;;;;;;5015830;28;19916;-60
2022/04/28 11:12:22;;;;;;;;;;;21.20;32.10;;;;;;5012205;28;19929;-66
2022/04/28 11:15:07;;;;;;;;;;;21.40;30.20;;;;;;5017200;28;19917;-65
2022/04/28 11:17:33;;;;;;;;;;;21.10;28.70;;;;;;5017551;28;19913;-64
2022/04/28 11:20:04;;;;;;;;;;;20.90;29.30;;;;;;5017280;28;19918;-62
2022/04/28 11:22:30;;;;;;;;;;;20.90;29.60;;;;;;5016836;28;19924;-61
2022/04/28 11:24:56;;;;;;;;;;;21.10;31.50;;;;;;5017092;28;19909;-64
2022/04/28 11:27:22;;;;;;;;;;;21.20;28.80;;;;;;5017102;28;19910;-62
2022/04/28 11:29:54;;;;;;;;;;;21.30;31.50;;;;;;5016981;28;19972;-63
2022/04/28 11:32:20;;;;;;;;;;;21.30;31.80;;;;;;5017013;28;19956;-60
2022/04/28 11:34:48;;;;;;;;;;;21.30;29.30;;;;;;5017119;28;19945;-60
2022/04/28 11:37:22;;;;;;;;;;;21.10;27.70;;;;;;5015825;28;19909;-59
2022/04/28 11:39:48;;;;;;;;;;;21.00;28.40;;;;;;5016736;28;20288;-61
2022/04/28 11:42:18;;;;;;;;;;;20.80;29.90;;;;;;5016934;28;19968;-58
2022/04/28 11:44:47;;;;;;;;;;;20.90;30.40;;;;;;5016857;28;19914;-60
2022/04/28 11:47:13;;;;;;;;;;;20.80;30.30;;;;;;5016987;28;19910;-58
2022/04/28 11:49:39;;;;;;;;;;;20.80;30.60;;;;;;5016889;28;20303;-64
2022/04/28 11:52:25;;;;;;;;;;;20.60;29.40;;;;;;5016718;28;19917;-62
2022/04/28 11:54:52;;;;;;;;;;;20.70;30.70;;;;;;5018892;28;19910;-60
2022/04/28 11:57:18;;;;;;;;;;;20.90;29.90;;;;;;5022473;28;20001;-67
2022/04/28 11:59:43;;;;;;;;;;;20.70;29.70;;;;;;5001862;28;19925;-66
2022/04/28 12:02:28;;;;;;;;;;;20.80;30.20;;;;;;5002302;28;20274;-63
2022/04/28 12:04:54;;;;;;;;;;;20.70;29.60;;;;;;4997409;28;20350;-64
2022/04/28 12:07:26;;;;;;;;;;;20.70;29.60;;;;;;4996711;28;19910;-58
2022/04/28 12:15:20;;;;;;;;;;;21.00;30.80;;;;;;4996981;28;19955;-55
2022/04/28 12:20:51;;;;;;;;;;;21.10;29.80;;;;;;4997033;28;19964;-58
2022/04/28 12:23:33;;;;;;;;;;;20.90;29.60;;;;;;4999847;28;19921;-61
2022/04/28 12:26:03;;;;;;;;;;;20.90;29.60;;;;;;5015311;28;19909;-61
2022/04/28 12:28:29;;;;;;;;;;;20.90;29.70;;;;;;5015453;28;19909;-62
2022/04/28 12:30:55;;;;;;;;;;;21.10;29.80;;;;;;5014228;28;19960;-62
2022/04/28 12:33:21;;;;;;;;;;;21.30;30.00;;;;;;5012988;28;19957;-64
2022/04/28 12:35:47;;;;;;;;;;;21.50;30.90;;;;;;5017863;28;19913;-62
2022/04/28 12:38:23;;;;;;;;;;;21.50;29.00;;;;;;5012666;28;20899;-62
2022/04/28 12:40:48;;;;;;;;;;;21.50;28.40;;;;;;5007358;28;19925;-59
2022/04/28 12:43:33;;;;;;;;;;;21.30;28.00;;;;;;5014382;28;19913;-60
2022/04/28 12:45:59;;;;;;;;;;;21.20;28.40;;;;;;5015823;28;20372;-62
2022/04/28 12:48:35;;;;;;;;;;;21.10;28.40;;;;;;5014852;28;19914;-59
2022/04/28 12:51:17;;;;;;;;;;;20.90;29.20;;;;;;5012263;28;20381;-62
2022/04/28 12:53:45;;;;;;;;;;;21.10;30.20;;;;;;5011695;28;20358;-61
2022/04/28 12:56:12;;;;;;;;;;;21.30;28.30;;;;;;5014941;28;19910;-60
2022/04/28 12:58:38;;;;;;;;;;;21.20;28.00;;;;;;5003573;28;19961;-62
2022/04/28 13:01:07;;;;;;;;;;;21.10;27.60;;;;;;5023212;28;19928;-60
2022/04/28 13:03:33;;;;;;;;;;;21.00;27.80;;;;;;5010236;28;20071;-62
2022/04/28 13:05:59;;;;;;;;;;;21.00;27.50;;;;;;5018234;28;19913;-62
2022/04/28 13:08:24;;;;;;;;;;;21.10;28.30;;;;;;5014812;28;19928;-60
2022/04/28 13:10:50;;;;;;;;;;;21.20;28.60;;;;;;5020265;28;19913;-60
2022/04/28 13:13:16;;;;;;;;;;;21.10;28.90;;;;;;5024696;28;19931;-62
2022/04/28 13:15:41;;;;;;;;;;;21.20;28.60;;;;;;5023192;28;20377;-57
2022/04/28 13:18:07;;;;;;;;;;;21.10;29.10;;;;;;5018567;28;19913;-58
2022/04/28 13:20:32;;;;;;;;;;;21.10;28.20;;;;;;5016261;28;20012;-56
2022/04/28 13:22:58;;;;;;;;;;;21.20;28.60;;;;;;5005306;28;19926;-57
2022/04/28 13:25:23;;;;;;;;;;;21.20;28.60;;;;;;5014682;28;20012;-58
2022/04/28 13:27:49;;;;;;;;;;;21.40;30.00;;;;;;5014544;28;19909;-58
2022/04/28 13:30:15;;;;;;;;;;;21.60;29.20;;;;;;5003836;28;19972;-57
2022/04/28 13:32:40;;;;;;;;;;;21.60;28.60;;;;;;5005397;28;19909;-56
2022/04/28 13:35:06;;;;;;;;;;;21.30;28.60;;;;;;5001638;28;20392;-55
2022/04/28 13:37:32;;;;;;;;;;;21.30;28.50;;;;;;4997666;28;19957;-56
2022/04/28 13:39:57;;;;;;;;;;;21.20;28.90;;;;;;5004473;28;19918;-59
2022/04/28 13:42:23;;;;;;;;;;;21.30;29.80;;;;;;5013020;28;20359;-60
2022/04/28 13:44:49;;;;;;;;;;;21.50;29.20;;;;;;5014294;28;19932;-59
2022/04/28 13:47:15;;;;;;;;;;;21.70;30.30;;;;;;5014164;28;19961;-59
2022/04/28 13:49:40;;;;;;;;;;;21.80;28.90;;;;;;5000753;28;19952;-60
2022/04/28 13:52:06;;;;;;;;;;;21.90;29.00;;;;;;4994466;28;19953;-59
2022/04/28 13:54:32;;;;;;;;;;;21.80;28.30;;;;;;5013348;28;20316;-58
2022/04/28 13:56:57;;;;;;;;;;;21.60;27.90;;;;;;5011813;28;19914;-58
2022/04/28 13:59:23;;;;;;;;;;;21.50;28.70;;;;;;5013511;28;19963;-59
2022/04/28 14:01:48;;;;;;;;;;;21.60;28.60;;;;;;5013519;28;19909;-60
2022/04/28 14:04:14;;;;;;;;;;;21.70;28.30;;;;;;5013593;28;20004;-59
2022/04/28 14:06:40;;;;;;;;;;;21.50;27.50;;;;;;5013390;28;19913;-62
2022/04/28 14:09:05;;;;;;;;;;;21.60;27.80;;;;;;5013807;28;19909;-59
2022/04/28 14:11:33;;;;;;;;;;;21.40;27.90;;;;;;5013321;28;19956;-62
2022/04/28 14:13:58;;;;;;;;;;;21.40;28.20;;;;;;5013628;28;20249;-59
2022/04/28 14:16:24;;;;;;;;;;;21.60;28.10;;;;;;5013384;28;19914;-61
2022/04/28 14:18:50;;;;;;;;;;;21.60;27.70;;;;;;5013457;28;20203;-61
2022/04/28 14:21:16;;;;;;;;;;;21.40;27.90;;;;;;5013428;28;19915;-57
2022/04/28 14:23:41;;;;;;;;;;;21.40;28.40;;;;;;5012435;28;20008;-57
2022/04/28 14:26:07;;;;;;;;;;;21.40;28.50;;;;;;5012754;28;19975;-57
2022/04/28 14:28:33;;;;;;;;;;;21.20;28.20;;;;;;5012545;28;19963;-57
2022/04/28 14:30:59;;;;;;;;;;;21.20;29.00;;;;;;5012514;28;19914;-56
2022/04/28 14:33:24;;;;;;;;;;;21.40;29.30;;;;;;5012423;28;19910;-57
2022/04/28 14:35:52;;;;;;;;;;;21.40;28.70;;;;;;5012305;28;20063;-57
2022/04/28 14:38:19;;;;;;;;;;;21.40;28.40;;;;;;5012498;28;20273;-59
2022/04/28 14:40:44;;;;;;;;;;;21.40;28.30;;;;;;5012150;28;19921;-57
2022/04/28 14:43:10;;;;;;;;;;;21.30;28.90;;;;;;5012632;28;19910;-59
2022/04/28 14:45:36;;;;;;;;;;;21.40;28.50;;;;;;5012141;28;19909;-59
2022/04/28 14:48:02;;;;;;;;;;;21.20;27.80;;;;;;5012763;28;20015;-59